Hastings, NE

4:22 PM CST on February 27, 2015 (GMT -0600)
Oswego Park | Change Station
CLOSE
Current Station
Personal Weather Station
Location: Hastings, NE
Elevation: 1949 ft
Nearby Weather Stations

Elev 1949 ft 40.59 °N, 98.41 °W | Updated 4 seconds ago

Clear
Clear
25.7 °F
Feels Like 18 °F
N
7.3
Wind Variable Wind from SSE
Gusts 10.4 mph

Today
High -- | Low -- °F
--% Chance of Precip.
Yesterday
High -- | Low -- °F
Precip. -- in
7:10 AM 6:22 PM
Waxing Gibbous, 72% visible
Pressure 30.51 in
Visibility 10.0 miles
Clouds Clear
Windchill 18 °F
Dew Point -4 °F
Humidity 27%
Rainfall 0.00 in
Snow Depth Not available.
UV 2 out of 12
Pollen .50 out of 12
Air Quality Not available.
Flu Activity Not available.
METAR KHSI 272153Z AUTO 20008KT 10SM CLR M06/M21 A3038 RMK AO2 SLP330 T10561211

More Conditions Fewer Conditions

Pressure 30.51 in
Visibility 10.0 miles
Clouds Clear
Windchill 18 °F
Dew Point -4 °F
Humidity 27%
Rainfall 0.00 in
Snow Depth Not available.
UV 2 out of 12
Pollen .50 out of 12
Air Quality Not available.
Flu Activity Not available.
METAR KHSI 272153Z AUTO 20008KT 10SM CLR M06/M21 A3038 RMK AO2 SLP330 T10561211

More Conditions Fewer Conditions

10-Day Weather Forecast

Almanac

Astronomy

Feb. 27, 2015 Rise Set
Actual Time
Civil Twilight
Nautical Twilight
Astronomical Twilight
Moon
Length of Visible Light
Length of Day
Tomorrow will be .
, % of the Moon is Illuminated

Today's Extremes

State Highs State Lows

Community

WunderPhotos

Upload Photos

1,800,853 photos uploaded!

WunderBlogs® & News

Nearby

Air Quality

  Air Quality AQ Index Pollutant
Not available.

Snow Depth

Station Depth Elevation

Earthquake Activity

City Distance Mag. Time & Date
Minimum magnitude displayed is 2.5.

Coastal Water Temperatures

Place Temperature

Nearby Weather Stations